Time;durP1;ratioP1;P1;durP2;ratioP2;P2;SDS_P1;SDS_P2;PMS_P1;PMS_P2;Temp;Humidity;BMP_temperature;BMP_pressure;BME280_temperature;BME280_humidity;BME280_pressure;Samples;Min_cycle;Max_cycle;Signal;HPM_P1;HPM_P2
2022/01/08 00:00:14;;;;;;;341.07;326.63;;;1.20;99.90;;;;;;4443331;32;20138;-65
2022/01/08 00:02:44;;;;;;;329.63;315.70;;;1.10;99.90;;;;;;4442748;32;20143;-64
2022/01/08 00:05:18;;;;;;;329.40;315.30;;;1.20;99.90;;;;;;4450119;32;20201;-63
2022/01/08 00:07:46;;;;;;;349.73;334.37;;;1.00;99.90;;;;;;4447488;32;20146;-63
2022/01/08 00:10:16;;;;;;;346.83;331.13;;;1.00;99.90;;;;;;4447750;32;20207;-67
2022/01/08 00:12:49;;;;;;;336.97;322.67;;;1.00;99.90;;;;;;4446415;32;20174;-64
2022/01/08 00:15:17;;;;;;;327.37;313.53;;;1.00;99.90;;;;;;4440799;32;20144;-63
2022/01/08 00:17:47;;;;;;;332.47;317.43;;;0.90;99.90;;;;;;4449925;32;20147;-63
2022/01/08 00:20:17;;;;;;;333.63;318.97;;;0.90;99.90;;;;;;4443637;32;20147;-65
2022/01/08 00:22:44;;;;;;;320.73;307.13;;;0.90;99.90;;;;;;4445550;32;20162;-62
2022/01/08 00:25:15;;;;;;;322.70;309.03;;;0.90;99.90;;;;;;4437414;32;20160;-63
2022/01/08 00:27:44;;;;;;;328.30;314.07;;;0.80;99.90;;;;;;4444294;32;21972;-63
2022/01/08 00:30:13;;;;;;;308.47;294.93;;;0.80;99.90;;;;;;4443374;32;20147;-66
2022/01/08 00:32:46;;;;;;;316.07;302.40;;;0.80;99.90;;;;;;4447121;32;20346;-63
2022/01/08 00:35:17;;;;;;;311.20;297.87;;;0.80;99.90;;;;;;4446414;32;20148;-63
2022/01/08 00:37:44;;;;;;;300.93;287.87;;;0.70;99.90;;;;;;4441437;32;20231;-63
2022/01/08 00:40:13;;;;;;;326.33;312.13;;;0.70;99.90;;;;;;4442375;32;20174;-63
2022/01/08 00:42:40;;;;;;;314.37;300.77;;;0.70;99.90;;;;;;4445179;32;20191;-65
2022/01/08 00:45:08;;;;;;;304.03;290.87;;;0.70;99.90;;;;;;4439537;32;20165;-62
2022/01/08 00:47:39;;;;;;;304.90;291.90;;;0.70;99.90;;;;;;4439497;32;20170;-63
2022/01/08 00:50:12;;;;;;;303.83;290.97;;;0.70;99.90;;;;;;4441564;32;20140;-68
2022/01/08 00:52:41;;;;;;;319.93;305.83;;;0.60;99.90;;;;;;4444674;32;20142;-63
2022/01/08 00:55:10;;;;;;;298.77;286.07;;;0.60;99.90;;;;;;4441785;32;20174;-62
2022/01/08 00:57:36;;;;;;;304.97;291.40;;;0.50;99.90;;;;;;4438209;32;20230;-63
2022/01/08 01:00:06;;;;;;;291.00;278.47;;;0.50;99.90;;;;;;4437428;32;20167;-63
2022/01/08 01:02:36;;;;;;;297.90;285.03;;;0.50;99.90;;;;;;4436537;32;20147;-65
2022/01/08 01:05:04;;;;;;;311.27;297.83;;;0.50;99.90;;;;;;4438372;32;20159;-64
2022/01/08 01:07:31;;;;;;;313.37;299.80;;;0.50;99.90;;;;;;4436179;32;20277;-63
2022/01/08 01:10:02;;;;;;;316.57;302.73;;;0.60;99.90;;;;;;4436880;32;20151;-64
2022/01/08 01:12:29;;;;;;;299.93;286.60;;;0.60;99.90;;;;;;4435904;32;20233;-62
2022/01/08 01:14:55;;;;;;;323.23;309.00;;;0.60;99.90;;;;;;4436703;32;20148;-65
2022/01/08 01:17:22;;;;;;;311.10;297.63;;;0.60;99.90;;;;;;4436537;32;20591;-62
2022/01/08 01:19:49;;;;;;;314.87;301.20;;;0.50;99.90;;;;;;4437443;32;20492;-66
2022/01/08 01:22:28;;;;;;;310.43;297.00;;;0.50;99.90;;;;;;4436870;32;20138;-63
2022/01/08 01:25:04;;;;;;;296.93;283.23;;;0.50;99.90;;;;;;4440391;32;20185;-63
2022/01/08 01:30:15;;;;;;;286.13;273.33;;;0.50;99.90;;;;;;4436068;32;20163;-66
2022/01/08 01:41:18;;;;;;;275.27;263.00;;;0.50;99.90;;;;;;4436459;32;20463;-67
2022/01/08 01:49:19;;;;;;;292.73;280.20;;;0.60;99.90;;;;;;4436989;32;20158;-65
2022/01/08 01:51:46;;;;;;;329.70;314.60;;;0.70;99.90;;;;;;4436305;32;20563;-62
2022/01/08 01:54:13;;;;;;;304.17;290.97;;;0.60;99.90;;;;;;4436205;32;20605;-65
2022/01/08 01:56:43;;;;;;;304.67;291.53;;;0.60;99.90;;;;;;4438753;32;20174;-66
2022/01/08 01:59:10;;;;;;;304.47;290.77;;;0.50;99.90;;;;;;4438596;32;20246;-66
2022/01/08 02:01:37;;;;;;;291.30;278.80;;;0.50;99.90;;;;;;4449934;32;20210;-65
2022/01/08 02:04:04;;;;;;;289.07;276.10;;;0.50;99.90;;;;;;4436313;32;20181;-61
2022/01/08 02:06:35;;;;;;;301.17;287.63;;;0.40;99.90;;;;;;4435517;32;20296;-62
2022/01/08 02:09:01;;;;;;;289.33;276.57;;;0.40;99.90;;;;;;4436615;32;20386;-64
2022/01/08 02:11:28;;;;;;;284.13;271.87;;;0.30;99.90;;;;;;4449053;32;20167;-66
2022/01/08 02:14:06;;;;;;;296.20;283.13;;;0.30;99.90;;;;;;4437897;32;20517;-63
2022/01/08 02:16:32;;;;;;;281.10;268.90;;;0.30;99.90;;;;;;4436240;32;20278;-66
2022/01/08 02:18:59;;;;;;;298.97;286.13;;;0.30;99.90;;;;;;4436136;32;20139;-64
2022/01/08 02:21:28;;;;;;;311.33;296.63;;;0.30;99.90;;;;;;4435461;32;20139;-67
2022/01/08 02:23:55;;;;;;;317.27;303.30;;;0.30;99.90;;;;;;4435946;32;20142;-66
2022/01/08 02:26:24;;;;;;;287.37;275.07;;;0.30;99.90;;;;;;4435576;32;20584;-65
2022/01/08 02:28:53;;;;;;;311.87;298.23;;;0.30;99.90;;;;;;4435144;32;20207;-64
2022/01/08 02:31:22;;;;;;;307.83;294.07;;;0.30;99.90;;;;;;4436429;32;20147;-64
2022/01/08 02:33:52;;;;;;;320.40;306.50;;;0.40;99.90;;;;;;4436418;32;20158;-64
2022/01/08 02:36:21;;;;;;;320.30;306.23;;;0.60;99.90;;;;;;4435885;32;20612;-63
2022/01/08 02:38:50;;;;;;;313.63;299.33;;;0.60;99.90;;;;;;4436575;32;20140;-64
2022/01/08 02:41:18;;;;;;;296.90;283.93;;;0.70;99.90;;;;;;4437471;32;20139;-66
2022/01/08 02:43:52;;;;;;;313.53;300.10;;;0.60;99.90;;;;;;4435824;32;20146;-63
2022/01/08 02:46:23;;;;;;;292.70;279.63;;;0.60;99.90;;;;;;4435834;32;20157;-64
2022/01/08 02:48:49;;;;;;;308.90;295.23;;;0.60;99.90;;;;;;4435642;32;20159;-62
2022/01/08 02:51:16;;;;;;;287.73;274.83;;;0.50;99.90;;;;;;4443075;32;20589;-65
2022/01/08 02:53:45;;;;;;;294.97;282.03;;;0.50;99.90;;;;;;4436063;32;20171;-66
2022/01/08 02:56:13;;;;;;;300.40;287.50;;;0.40;99.90;;;;;;4441668;32;20146;-65
2022/01/08 02:58:44;;;;;;;283.50;271.67;;;0.40;99.90;;;;;;4443339;32;20162;-66
2022/01/08 03:01:11;;;;;;;295.37;282.70;;;0.30;99.90;;;;;;4439441;32;20182;-64
2022/01/08 03:03:38;;;;;;;267.90;256.43;;;0.30;99.90;;;;;;4450400;32;20574;-64
2022/01/08 03:06:07;;;;;;;256.40;245.53;;;0.30;99.90;;;;;;4440919;32;20241;-66
2022/01/08 03:08:33;;;;;;;259.17;247.93;;;0.20;99.90;;;;;;4443081;32;20495;-65
2022/01/08 03:11:00;;;;;;;258.70;247.53;;;0.20;99.90;;;;;;4445402;32;20575;-66
2022/01/08 03:13:28;;;;;;;280.97;269.10;;;0.10;99.90;;;;;;4438121;32;20163;-62
2022/01/08 03:15:58;;;;;;;269.70;257.70;;;0.10;99.90;;;;;;4447924;32;20183;-63
2022/01/08 03:18:25;;;;;;;273.17;261.30;;;0.10;99.90;;;;;;4440591;32;20218;-62
2022/01/08 03:21:01;;;;;;;265.20;253.77;;;0.10;99.90;;;;;;4440897;32;20510;-65
2022/01/08 03:23:36;;;;;;;239.63;229.03;;;0.00;99.90;;;;;;4436430;32;20139;-63
2022/01/08 03:26:06;;;;;;;249.83;238.53;;;0.00;99.90;;;;;;4444683;32;20230;-64
2022/01/08 03:28:35;;;;;;;244.67;233.57;;;0.00;99.90;;;;;;4434866;32;20143;-65
2022/01/08 03:31:01;;;;;;;252.60;241.37;;;0.00;99.90;;;;;;4445018;32;20151;-62
2022/01/08 03:33:38;;;;;;;257.87;246.43;;;0.00;99.90;;;;;;4437979;32;20182;-65
2022/01/08 03:36:05;;;;;;;238.40;227.60;;;-0.10;99.90;;;;;;4445480;32;20157;-65
2022/01/08 03:38:33;;;;;;;250.23;239.27;;;-0.10;99.90;;;;;;4442298;32;20261;-65
2022/01/08 03:41:02;;;;;;;248.67;237.57;;;-0.10;99.90;;;;;;4450523;32;20209;-65
2022/01/08 03:43:29;;;;;;;243.33;232.93;;;-0.10;99.90;;;;;;4440689;32;20151;-63
2022/01/08 03:46:01;;;;;;;246.53;235.53;;;-0.10;99.90;;;;;;4439335;32;20144;-64
2022/01/08 03:48:31;;;;;;;237.50;226.70;;;-0.20;99.90;;;;;;4442856;32;20143;-66
2022/01/08 03:50:58;;;;;;;253.80;242.37;;;-0.10;99.90;;;;;;4442252;32;20623;-65
2022/01/08 03:53:28;;;;;;;251.37;240.20;;;-0.10;99.90;;;;;;4450236;32;20158;-64
2022/01/08 03:55:55;;;;;;;242.60;231.73;;;-0.20;99.90;;;;;;4438272;32;20159;-62
2022/01/08 03:58:22;;;;;;;255.63;244.60;;;-0.20;99.90;;;;;;4437726;32;20210;-65
2022/01/08 04:00:49;;;;;;;242.47;231.90;;;-0.20;99.90;;;;;;4437639;32;20605;-66
2022/01/08 04:03:18;;;;;;;236.27;225.70;;;-0.20;99.90;;;;;;4436958;32;20166;-64
2022/01/08 04:05:46;;;;;;;241.30;230.93;;;-0.20;99.90;;;;;;4437914;32;20177;-64
2022/01/08 04:08:14;;;;;;;230.00;219.50;;;-0.20;99.90;;;;;;4437336;32;20235;-67
2022/01/08 04:10:41;;;;;;;230.97;220.80;;;-0.30;99.90;;;;;;4437708;32;20689;-63
2022/01/08 04:13:14;;;;;;;251.07;239.80;;;-0.30;99.90;;;;;;4437236;32;20155;-64
2022/01/08 04:15:43;;;;;;;224.20;214.20;;;-0.30;99.90;;;;;;4437335;32;20146;-63
2022/01/08 04:18:11;;;;;;;231.80;221.13;;;-0.30;99.90;;;;;;4437039;32;20139;-64
2022/01/08 04:20:50;;;;;;;225.27;215.33;;;-0.30;99.90;;;;;;4436836;32;20171;-65
2022/01/08 04:23:20;;;;;;;225.40;215.37;;;-0.30;99.90;;;;;;4437357;32;20456;-65
2022/01/08 04:25:47;;;;;;;231.50;221.37;;;-0.30;99.90;;;;;;4436904;32;20199;-65
2022/01/08 04:28:14;;;;;;;229.17;219.10;;;-0.30;99.90;;;;;;4436935;32;20242;-62
2022/01/08 04:30:41;;;;;;;231.80;221.40;;;-0.30;99.90;;;;;;4438491;32;20139;-62
2022/01/08 04:33:11;;;;;;;238.37;227.80;;;-0.40;99.90;;;;;;4436720;32;20143;-64
2022/01/08 04:35:40;;;;;;;232.50;222.30;;;-0.40;99.90;;;;;;4439229;32;20181;-62
2022/01/08 04:38:07;;;;;;;231.10;220.53;;;-0.40;99.90;;;;;;4447358;32;20239;-63
2022/01/08 04:40:34;;;;;;;250.13;239.17;;;-0.50;99.90;;;;;;4439013;32;20194;-62
2022/01/08 04:43:01;;;;;;;228.17;217.67;;;-0.50;99.90;;;;;;4436350;32;20601;-64
2022/01/08 04:45:29;;;;;;;228.13;218.00;;;-0.50;99.90;;;;;;4439451;32;20147;-65
2022/01/08 04:47:57;;;;;;;249.00;237.67;;;-0.50;99.90;;;;;;4438080;32;20579;-63
2022/01/08 04:50:24;;;;;;;233.27;222.97;;;-0.50;99.90;;;;;;4436498;32;20206;-64
2022/01/08 04:52:52;;;;;;;243.43;232.60;;;-0.40;99.90;;;;;;4435683;32;20289;-66
2022/01/08 04:55:20;;;;;;;239.83;229.43;;;-0.40;99.90;;;;;;4439267;32;20249;-64
2022/01/08 04:57:50;;;;;;;241.17;230.30;;;-0.40;99.90;;;;;;4436615;32;20147;-64
2022/01/08 05:00:20;;;;;;;246.83;235.33;;;-0.30;99.90;;;;;;4437358;32;20174;-63
2022/01/08 05:02:47;;;;;;;239.83;228.97;;;-0.20;99.90;;;;;;4437131;32;20163;-61
2022/01/08 05:05:17;;;;;;;230.80;220.60;;;-0.20;99.90;;;;;;4436499;32;20210;-62
2022/01/08 05:07:44;;;;;;;237.53;226.77;;;-0.20;99.90;;;;;;4436059;32;20569;-67
2022/01/08 05:10:12;;;;;;;231.47;221.13;;;-0.20;99.90;;;;;;4442921;32;20153;-66
2022/01/08 05:12:42;;;;;;;245.87;235.27;;;-0.30;99.90;;;;;;4435730;32;20230;-63
2022/01/08 05:15:09;;;;;;;252.37;241.43;;;-0.30;99.90;;;;;;4437998;32;20519;-65
2022/01/08 05:17:38;;;;;;;246.07;235.20;;;-0.20;99.90;;;;;;4436854;32;20177;-63
2022/01/08 05:20:10;;;;;;;232.00;221.57;;;-0.20;99.90;;;;;;4436665;32;20155;-64
2022/01/08 05:22:50;;;;;;;241.10;230.23;;;-0.10;99.90;;;;;;4435427;32;20500;-64
2022/01/08 05:25:20;;;;;;;234.67;224.23;;;-0.10;99.90;;;;;;4435942;32;20151;-67
2022/01/08 05:27:48;;;;;;;232.90;222.93;;;-0.10;99.90;;;;;;4436238;32;20185;-64
2022/01/08 05:30:17;;;;;;;240.10;229.30;;;-0.10;99.90;;;;;;4439209;32;20150;-63
2022/01/08 05:32:52;;;;;;;241.53;231.07;;;0.00;99.90;;;;;;4435773;32;20222;-65
2022/01/08 05:35:19;;;;;;;250.63;239.60;;;0.00;99.90;;;;;;4435876;32;20147;-64
2022/01/08 05:37:46;;;;;;;252.80;241.80;;;0.10;99.90;;;;;;4435718;32;20219;-66
2022/01/08 05:40:13;;;;;;;264.33;252.50;;;0.20;99.90;;;;;;4441469;32;20210;-63
2022/01/08 05:42:45;;;;;;;251.33;240.40;;;0.20;99.90;;;;;;4442513;32;20261;-64
2022/01/08 05:45:18;;;;;;;263.07;251.90;;;0.20;99.90;;;;;;4436298;32;20571;-63
2022/01/08 05:47:45;;;;;;;241.73;231.03;;;0.20;99.90;;;;;;4435524;32;20143;-65
2022/01/08 05:50:14;;;;;;;229.67;219.50;;;0.10;99.90;;;;;;4435395;32;20626;-66
2022/01/08 05:52:41;;;;;;;231.17;221.13;;;0.00;99.90;;;;;;4442473;32;20526;-65
2022/01/08 05:55:12;;;;;;;237.23;227.07;;;0.00;99.90;;;;;;4435703;32;20267;-63
2022/01/08 05:57:38;;;;;;;246.67;235.90;;;-0.10;99.90;;;;;;4435217;32;20179;-66
2022/01/08 06:00:08;;;;;;;244.17;233.07;;;-0.10;99.90;;;;;;4435584;32;20173;-65
2022/01/08 06:02:36;;;;;;;233.20;223.03;;;-0.20;99.90;;;;;;4435935;32;20601;-62
2022/01/08 06:05:04;;;;;;;219.90;209.80;;;-0.20;99.90;;;;;;4435365;32;20483;-64
2022/01/08 06:07:30;;;;;;;225.03;215.13;;;-0.20;99.90;;;;;;4436640;32;20817;-62
2022/01/08 06:09:57;;;;;;;213.40;203.93;;;-0.20;99.90;;;;;;4435501;32;20162;-63
2022/01/08 06:12:24;;;;;;;218.73;208.77;;;-0.30;99.90;;;;;;4435967;32;20182;-65
2022/01/08 06:14:51;;;;;;;227.60;217.27;;;-0.30;99.90;;;;;;4435426;32;20144;-66
2022/01/08 06:17:19;;;;;;;215.80;206.30;;;-0.30;99.90;;;;;;4435738;32;20219;-62
2022/01/08 06:19:46;;;;;;;236.13;225.93;;;-0.30;99.90;;;;;;4435337;32;20250;-66
2022/01/08 06:22:12;;;;;;;250.10;239.33;;;-0.20;99.90;;;;;;4435458;32;20628;-64
2022/01/08 06:24:42;;;;;;;236.67;226.33;;;-0.20;99.90;;;;;;4434898;32;20219;-64
2022/01/08 06:27:10;;;;;;;252.57;241.93;;;-0.10;99.90;;;;;;4435497;32;20575;-63
2022/01/08 06:29:37;;;;;;;248.00;236.97;;;-0.10;99.90;;;;;;4435338;32;20143;-63
2022/01/08 06:32:04;;;;;;;243.40;232.37;;;0.00;99.90;;;;;;4435039;32;20657;-63
2022/01/08 06:34:33;;;;;;;255.83;244.50;;;0.10;99.90;;;;;;4434978;32;20174;-65
2022/01/08 06:37:03;;;;;;;252.67;241.30;;;0.20;99.90;;;;;;4434601;32;20135;-65
2022/01/08 06:39:30;;;;;;;254.97;243.50;;;0.30;99.90;;;;;;4434697;32;20234;-67
2022/01/08 06:41:56;;;;;;;257.77;246.77;;;0.30;99.90;;;;;;4435442;32;20163;-65
2022/01/08 06:44:23;;;;;;;265.40;253.80;;;0.30;99.90;;;;;;4434543;32;20161;-64
2022/01/08 06:46:50;;;;;;;277.80;265.40;;;0.40;99.90;;;;;;4439970;32;20226;-65
2022/01/08 06:49:17;;;;;;;295.63;282.83;;;0.50;99.90;;;;;;4435245;32;20158;-65
2022/01/08 06:51:45;;;;;;;286.00;273.50;;;0.50;99.90;;;;;;4447616;32;20575;-67
2022/01/08 06:54:12;;;;;;;296.13;282.43;;;0.50;99.90;;;;;;4436213;32;20514;-64
2022/01/08 06:56:40;;;;;;;292.83;280.37;;;0.60;99.90;;;;;;4435104;32;20231;-65
2022/01/08 06:59:08;;;;;;;284.83;272.23;;;0.60;99.90;;;;;;4434609;32;20160;-64
2022/01/08 07:01:35;;;;;;;293.90;281.40;;;0.60;99.90;;;;;;4435048;32;20233;-64
2022/01/08 07:04:02;;;;;;;300.17;287.40;;;0.60;99.90;;;;;;4435128;32;20166;-67
2022/01/08 07:06:29;;;;;;;288.03;275.10;;;0.60;99.90;;;;;;4434617;32;20513;-63
2022/01/08 07:08:57;;;;;;;287.47;275.17;;;0.70;99.90;;;;;;4434357;32;20191;-63
2022/01/08 07:11:29;;;;;;;300.53;287.67;;;0.70;99.90;;;;;;4434730;32;20142;-64
2022/01/08 07:13:56;;;;;;;275.70;263.97;;;0.80;99.90;;;;;;4435619;32;20261;-67
2022/01/08 07:16:23;;;;;;;290.93;278.33;;;0.80;99.90;;;;;;4436917;32;20203;-62
2022/01/08 07:18:50;;;;;;;290.77;278.00;;;0.80;99.90;;;;;;4437366;32;20175;-63
2022/01/08 07:21:21;;;;;;;312.37;298.20;;;0.80;99.90;;;;;;4437320;32;20194;-64
2022/01/08 07:23:53;;;;;;;306.03;292.30;;;0.90;99.90;;;;;;4438038;32;20140;-63
2022/01/08 07:26:21;;;;;;;270.90;259.40;;;0.80;99.90;;;;;;4438739;32;20145;-61
2022/01/08 07:28:49;;;;;;;271.67;260.27;;;0.80;99.90;;;;;;4437842;32;20510;-60
2022/01/08 07:31:16;;;;;;;292.97;279.37;;;0.90;99.90;;;;;;4438042;32;20200;-62
2022/01/08 07:33:42;;;;;;;299.30;285.93;;;0.80;99.90;;;;;;4437529;32;20156;-63
2022/01/08 07:36:10;;;;;;;276.20;264.20;;;0.90;99.90;;;;;;4438134;32;20135;-62
2022/01/08 07:38:39;;;;;;;297.17;283.50;;;0.90;99.90;;;;;;4438027;32;20478;-64
2022/01/08 07:41:06;;;;;;;294.57;281.70;;;0.90;99.90;;;;;;4440078;32;20154;-62
2022/01/08 07:43:34;;;;;;;324.57;310.37;;;0.90;99.90;;;;;;4439061;32;20231;-62
2022/01/08 07:46:01;;;;;;;306.20;292.27;;;0.90;99.90;;;;;;4436938;32;20184;-61
2022/01/08 07:48:28;;;;;;;315.00;301.50;;;0.90;99.90;;;;;;4436270;32;20230;-62
2022/01/08 07:50:55;;;;;;;319.70;305.33;;;1.00;99.90;;;;;;4436070;32;20159;-64
2022/01/08 07:53:25;;;;;;;318.33;303.97;;;1.00;99.90;;;;;;4436438;32;20182;-65
2022/01/08 07:55:52;;;;;;;303.47;289.60;;;1.00;99.90;;;;;;4434760;32;20183;-64
2022/01/08 07:58:21;;;;;;;312.57;298.50;;;1.00;99.90;;;;;;4438736;32;20379;-62
2022/01/08 08:00:49;;;;;;;325.00;310.40;;;1.10;99.90;;;;;;4428556;32;20151;-65
2022/01/08 08:03:20;;;;;;;306.97;293.37;;;1.10;99.90;;;;;;4444190;32;20195;-67
2022/01/08 08:05:50;;;;;;;312.93;298.97;;;1.10;99.90;;;;;;4443458;32;20214;-63
2022/01/08 08:08:17;;;;;;;313.60;299.30;;;1.10;99.90;;;;;;4445446;32;20166;-64
2022/01/08 08:10:47;;;;;;;342.10;326.90;;;1.20;99.90;;;;;;4444275;32;20245;-67
2022/01/08 08:13:14;;;;;;;337.60;322.00;;;1.30;99.90;;;;;;4446427;32;20151;-61
2022/01/08 08:15:41;;;;;;;341.80;326.17;;;1.40;99.90;;;;;;4444071;32;20164;-62
2022/01/08 08:18:09;;;;;;;337.33;321.97;;;1.40;99.90;;;;;;4439470;32;20189;-64
2022/01/08 08:20:37;;;;;;;330.57;315.07;;;1.50;99.90;;;;;;4438125;32;20174;-63
2022/01/08 08:23:10;;;;;;;319.87;304.77;;;1.60;99.90;;;;;;4439361;32;20291;-62
2022/01/08 08:25:38;;;;;;;343.30;326.77;;;1.60;99.90;;;;;;4441419;32;20259;-62
2022/01/08 08:28:05;;;;;;;336.43;321.23;;;1.60;99.90;;;;;;4442231;32;20197;-62
2022/01/08 08:30:33;;;;;;;349.77;333.00;;;1.60;99.90;;;;;;4442774;32;20559;-62
2022/01/08 08:33:00;;;;;;;342.23;326.23;;;1.60;99.90;;;;;;4443831;32;20263;-64
2022/01/08 08:35:31;;;;;;;370.13;352.93;;;1.70;99.90;;;;;;4443047;32;20241;-61
2022/01/08 08:37:58;;;;;;;325.43;310.27;;;1.70;99.90;;;;;;4439066;32;20210;-64
2022/01/08 08:40:28;;;;;;;358.53;342.30;;;1.70;99.90;;;;;;4440839;32;20143;-66
2022/01/08 08:42:55;;;;;;;350.30;333.83;;;1.80;99.90;;;;;;4440194;32;20147;-64
2022/01/08 08:45:24;;;;;;;367.47;349.97;;;1.80;99.90;;;;;;4443531;32;20226;-67
2022/01/08 08:47:51;;;;;;;373.37;355.23;;;1.90;99.90;;;;;;4442468;32;20158;-63
2022/01/08 08:50:23;;;;;;;376.70;359.33;;;2.00;99.90;;;;;;4441552;32;20465;-63
2022/01/08 08:52:55;;;;;;;371.83;354.60;;;2.00;99.90;;;;;;4438585;32;20151;-64
2022/01/08 08:55:22;;;;;;;345.30;329.63;;;2.00;99.90;;;;;;4436761;32;20749;-64
2022/01/08 08:57:49;;;;;;;336.73;320.97;;;2.10;99.90;;;;;;4438511;32;20197;-64
2022/01/08 09:00:16;;;;;;;353.27;336.63;;;2.00;99.90;;;;;;4438064;32;20141;-63
2022/01/08 09:02:43;;;;;;;348.43;332.40;;;2.00;99.90;;;;;;4434921;32;20575;-64
2022/01/08 09:05:11;;;;;;;356.93;340.47;;;2.10;99.90;;;;;;4442006;32;20230;-62
2022/01/08 09:07:39;;;;;;;360.23;343.50;;;2.20;99.90;;;;;;4436325;32;20629;-62
2022/01/08 09:10:10;;;;;;;356.47;339.23;;;2.20;99.90;;;;;;4435660;32;20141;-62
2022/01/08 09:12:37;;;;;;;348.53;331.43;;;2.30;99.90;;;;;;4434816;32;20175;-62
2022/01/08 09:15:05;;;;;;;358.33;341.97;;;2.20;99.90;;;;;;4439411;32;20152;-62
2022/01/08 09:17:34;;;;;;;366.60;348.83;;;2.20;99.90;;;;;;4435437;32;20538;-67
2022/01/08 09:20:01;;;;;;;376.37;358.50;;;2.20;99.90;;;;;;4435779;32;20293;-64
2022/01/08 09:22:28;;;;;;;367.20;349.97;;;2.20;99.90;;;;;;4435063;32;20231;-65
2022/01/08 09:24:55;;;;;;;354.60;337.50;;;2.30;99.90;;;;;;4436227;32;20284;-65
2022/01/08 09:27:26;;;;;;;374.67;356.87;;;2.40;99.90;;;;;;4432518;32;20162;-62
2022/01/08 09:29:54;;;;;;;377.57;359.53;;;2.40;99.90;;;;;;4433669;32;20148;-62
2022/01/08 09:32:23;;;;;;;370.40;353.00;;;2.50;99.90;;;;;;4433035;32;20212;-62
2022/01/08 09:34:50;;;;;;;383.40;365.53;;;2.50;99.90;;;;;;4434036;32;20227;-67
2022/01/08 09:37:17;;;;;;;404.10;383.83;;;2.50;99.90;;;;;;4434447;32;20159;-65
2022/01/08 09:39:44;;;;;;;392.40;373.63;;;2.50;99.90;;;;;;4434998;32;20644;-65
2022/01/08 09:42:11;;;;;;;415.63;395.13;;;2.60;99.90;;;;;;4433590;32;20147;-63
2022/01/08 09:44:45;;;;;;;412.93;393.27;;;2.70;99.90;;;;;;4434140;32;20199;-65
2022/01/08 09:47:12;;;;;;;397.30;378.20;;;2.80;99.90;;;;;;4433911;32;20143;-64
2022/01/08 09:49:41;;;;;;;394.00;375.07;;;2.90;99.90;;;;;;4433625;32;20158;-64
2022/01/08 09:52:12;;;;;;;397.60;378.50;;;3.00;99.90;;;;;;4434327;32;20184;-64
2022/01/08 09:54:43;;;;;;;394.37;375.50;;;3.10;99.90;;;;;;4433655;32;20159;-66
2022/01/08 09:57:10;;;;;;;395.67;376.57;;;3.20;99.90;;;;;;4433356;32;20519;-64
2022/01/08 09:59:42;;;;;;;389.47;370.87;;;3.30;99.90;;;;;;4433825;32;20190;-64
2022/01/08 10:02:12;;;;;;;373.90;356.30;;;3.30;99.90;;;;;;4432963;32;20215;-69
2022/01/08 10:04:41;;;;;;;375.30;358.07;;;3.30;99.90;;;;;;4431929;32;20266;-64
2022/01/08 10:07:18;;;;;;;372.43;354.73;;;3.40;99.90;;;;;;4432377;32;20271;-65
2022/01/08 10:10:02;;;;;;;338.93;322.43;;;3.40;99.90;;;;;;4433745;32;20185;-68
2022/01/08 10:12:59;;;;;;;339.53;323.80;;;3.40;99.90;;;;;;4430665;32;20238;-62
2022/01/08 10:18:26;;;;;;;311.10;295.80;;;3.50;99.90;;;;;;4375841;32;20732;-62
2022/01/08 10:21:02;;;;;;;321.27;305.73;;;3.50;99.90;;;;;;4368205;32;20227;-62
2022/01/08 10:23:31;;;;;;;321.63;306.70;;;3.40;99.90;;;;;;4373284;32;20215;-64
2022/01/08 10:26:05;;;;;;;332.83;317.50;;;3.50;99.90;;;;;;4373577;32;20322;-64
2022/01/08 10:28:43;;;;;;;318.50;303.93;;;3.60;99.90;;;;;;4373860;32;20139;-63
2022/01/08 10:31:16;;;;;;;326.13;311.33;;;3.60;99.90;;;;;;4371724;32;20251;-66
2022/01/08 10:33:54;;;;;;;309.20;294.83;;;3.70;99.90;;;;;;4377699;32;20224;-64
2022/01/08 10:36:23;;;;;;;315.07;300.63;;;3.60;99.90;;;;;;4379114;32;20582;-63
2022/01/08 10:38:55;;;;;;;309.53;295.10;;;3.70;99.90;;;;;;4377589;32;20205;-64
2022/01/08 10:41:26;;;;;;;289.73;275.57;;;3.70;99.90;;;;;;4380357;32;20229;-63
2022/01/08 10:44:07;;;;;;;324.63;308.57;;;3.80;99.90;;;;;;4374335;32;20587;-65
2022/01/08 10:46:38;;;;;;;301.90;287.27;;;3.90;99.90;;;;;;4375165;32;20248;-67
2022/01/08 10:49:08;;;;;;;309.40;294.23;;;3.90;99.90;;;;;;4379878;32;20164;-64
2022/01/08 10:51:39;;;;;;;274.27;261.30;;;4.00;99.90;;;;;;4398770;32;20234;-63
2022/01/08 10:54:11;;;;;;;298.37;283.43;;;4.00;99.90;;;;;;4417043;32;20165;-64
2022/01/08 10:56:42;;;;;;;289.80;276.47;;;4.20;99.90;;;;;;4435347;32;20227;-67
2022/01/08 10:59:14;;;;;;;296.83;283.37;;;4.50;99.90;;;;;;4433034;32;20171;-64
2022/01/08 11:01:50;;;;;;;282.33;269.43;;;4.60;99.90;;;;;;4432988;32;20183;-63
2022/01/08 11:04:19;;;;;;;287.60;274.93;;;4.60;99.90;;;;;;4435696;32;20148;-63
2022/01/08 11:06:51;;;;;;;257.43;245.77;;;4.60;99.90;;;;;;4434256;32;20178;-67
2022/01/08 11:09:18;;;;;;;261.47;249.43;;;4.60;99.90;;;;;;4435802;32;20530;-63
2022/01/08 11:11:45;;;;;;;240.40;229.53;;;4.60;99.90;;;;;;4436317;32;20165;-63
2022/01/08 11:14:23;;;;;;;278.70;266.17;;;4.50;99.90;;;;;;4436155;32;20199;-63
2022/01/08 11:16:52;;;;;;;282.53;269.77;;;4.50;99.90;;;;;;4434600;32;20248;-64
2022/01/08 11:19:21;;;;;;;243.33;231.43;;;4.60;99.90;;;;;;4437781;32;20554;-66
2022/01/08 11:21:49;;;;;;;245.07;233.73;;;4.50;99.90;;;;;;4436645;32;20501;-65
2022/01/08 11:24:18;;;;;;;251.03;239.67;;;4.40;99.90;;;;;;4437789;32;20164;-63
2022/01/08 11:26:50;;;;;;;247.73;236.63;;;4.50;99.90;;;;;;4439613;32;20226;-64
2022/01/08 11:29:22;;;;;;;244.53;233.43;;;4.60;99.90;;;;;;4438142;32;20212;-61
2022/01/08 11:32:00;;;;;;;239.50;228.33;;;4.70;99.90;;;;;;4435095;32;20207;-62
2022/01/08 11:34:30;;;;;;;249.10;237.93;;;4.60;99.90;;;;;;4434657;32;20647;-64
2022/01/08 11:36:58;;;;;;;252.23;240.73;;;4.80;99.90;;;;;;4437377;32;20150;-66
2022/01/08 11:39:32;;;;;;;259.53;247.40;;;4.90;99.90;;;;;;4438131;32;20558;-62
2022/01/08 11:41:59;;;;;;;227.70;217.37;;;4.90;99.90;;;;;;4437389;32;20206;-63
2022/01/08 11:44:27;;;;;;;249.17;237.53;;;4.90;99.90;;;;;;4436177;32;20166;-63
2022/01/08 11:46:57;;;;;;;248.20;236.97;;;5.00;99.90;;;;;;4437321;32;20207;-63
2022/01/08 11:49:27;;;;;;;268.90;257.00;;;5.10;99.90;;;;;;4438274;32;20908;-63
2022/01/08 11:52:20;;;;;;;272.47;259.63;;;5.10;99.90;;;;;;4436642;32;20223;-63
2022/01/08 11:54:52;;;;;;;256.37;244.70;;;5.10;99.90;;;;;;4437800;32;20227;-63
2022/01/08 11:57:24;;;;;;;242.20;231.17;;;5.10;99.90;;;;;;4434299;32;20155;-60
2022/01/08 11:59:56;;;;;;;277.77;265.13;;;5.10;99.90;;;;;;4432017;32;20486;-63
2022/01/08 12:02:51;;;;;;;229.43;218.63;;;4.90;99.90;;;;;;4437992;32;20166;-63
2022/01/08 12:05:31;;;;;;;239.73;228.23;;;4.80;99.90;;;;;;4434120;32;20175;-63
2022/01/08 12:08:16;;;;;;;246.40;234.83;;;4.60;99.90;;;;;;4436227;32;20144;-63
2022/01/08 12:10:57;;;;;;;268.83;256.67;;;4.50;99.90;;;;;;4435857;32;20495;-65
2022/01/08 12:13:48;;;;;;;256.03;244.67;;;4.50;99.90;;;;;;4438012;32;20228;-62
2022/01/08 12:16:35;;;;;;;264.10;252.13;;;4.50;99.90;;;;;;4437734;32;20133;-64
2022/01/08 12:19:24;;;;;;;269.00;256.73;;;4.40;99.90;;;;;;4435351;32;20145;-65
2022/01/08 12:21:54;;;;;;;271.57;258.83;;;4.50;99.90;;;;;;4435393;32;20158;-64
2022/01/08 12:24:35;;;;;;;284.30;271.37;;;4.60;99.90;;;;;;4438746;32;20481;-63
2022/01/08 12:27:23;;;;;;;272.23;259.80;;;4.50;99.90;;;;;;4435512;32;20477;-63
2022/01/08 12:29:50;;;;;;;277.30;264.70;;;4.40;99.90;;;;;;4436390;32;20185;-63
2022/01/08 12:32:29;;;;;;;275.30;262.23;;;4.30;99.90;;;;;;4437417;32;20219;-62
2022/01/08 12:35:22;;;;;;;290.10;276.87;;;4.30;99.90;;;;;;4435767;32;20143;-63
2022/01/08 12:37:55;;;;;;;273.43;260.93;;;4.20;99.90;;;;;;4434549;32;20214;-61
2022/01/08 12:40:39;;;;;;;307.60;294.00;;;4.10;99.90;;;;;;4435005;32;20478;-65
2022/01/08 12:43:30;;;;;;;306.93;293.10;;;4.10;99.90;;;;;;4436672;32;21084;-62
2022/01/08 12:46:17;;;;;;;310.83;297.00;;;4.00;99.90;;;;;;4437639;32;20165;-62
2022/01/08 12:49:13;;;;;;;303.03;289.83;;;4.00;99.90;;;;;;4436718;32;20563;-66